Time;durP1;ratioP1;P1;durP2;ratioP2;P2;SDS_P1;SDS_P2;PMS_P1;PMS_P2;Temp;Humidity;BMP_temperature;BMP_pressure;BME280_temperature;BME280_humidity;BME280_pressure;Samples;Min_cycle;Max_cycle;Signal;HPM_P1;HPM_P2
2022/01/03 00:00:23;;;;;;;24.00;4.28;;;;;;;8.55;100.00;100832.84;5075738;28;20028;-48
2022/01/03 00:02:49;;;;;;;23.85;4.72;;;;;;;8.97;100.00;100889.53;5057671;28;20395;-48
2022/01/03 00:05:14;;;;;;;22.30;4.97;;;;;;;8.58;100.00;100841.50;5075936;28;20020;-48
2022/01/03 00:07:42;;;;;;;28.88;4.97;;;;;;;8.94;100.00;100926.34;5075314;28;20035;-50
2022/01/03 00:10:08;;;;;;;31.42;5.97;;;;;;;8.85;100.00;100895.06;5057377;28;20049;-48
2022/01/03 00:12:34;;;;;;;26.73;5.07;;;;;;;8.92;100.00;100915.03;5075304;28;20037;-49
2022/01/03 00:15:00;;;;;;;23.67;4.50;;;;;;;8.99;100.00;100920.09;5075126;28;20047;-51
2022/01/03 00:17:25;;;;;;;22.55;4.45;;;;;;;8.68;100.00;100864.00;5057376;28;20064;-48
2022/01/03 00:19:50;;;;;;;24.33;4.53;;;;;;;8.98;100.00;100921.00;5057871;28;20025;-48
2022/01/03 00:22:21;;;;;;;26.98;4.47;;;;;;;8.98;100.00;100931.50;5075127;28;20029;-47
2022/01/03 00:24:54;;;;;;;30.10;4.82;;;;;;;8.65;100.00;100879.81;5075201;28;20033;-48
2022/01/03 00:27:22;;;;;;;31.23;4.97;;;;;;;8.89;100.00;100909.84;5057102;28;20025;-49
2022/01/03 00:29:51;;;;;;;32.35;5.32;;;;;;;8.56;100.00;100880.03;5041413;28;20123;-47
2022/01/03 00:32:16;;;;;;;30.65;5.82;;;;;;;8.93;100.00;100941.22;5075151;28;20033;-50
2022/01/03 00:34:43;;;;;;;28.85;5.70;;;;;;;8.61;100.00;100896.50;5057184;28;20472;-49
2022/01/03 00:37:10;;;;;;;28.10;5.95;;;;;;;8.74;100.00;100924.22;5057108;28;20031;-48
2022/01/03 00:39:36;;;;;;;34.67;5.65;;;;;;;8.75;100.00;100933.81;5057086;28;20059;-47
2022/01/03 00:42:02;;;;;;;29.38;5.38;;;;;;;8.85;100.00;100937.94;5075133;28;20037;-46
2022/01/03 00:44:27;;;;;;;31.85;5.30;;;;;;;8.84;100.00;100951.13;5040195;28;20099;-46
2022/01/03 00:46:53;;;;;;;31.10;5.10;;;;;;;8.84;100.00;100944.06;5056813;28;20430;-47
2022/01/03 00:49:19;;;;;;;27.60;5.47;;;;;;;8.90;100.00;100958.84;5057034;28;20055;-47
2022/01/03 00:51:44;;;;;;;23.85;5.03;;;;;;;8.87;100.00;100951.88;5074922;28;20488;-49
2022/01/03 00:54:10;;;;;;;24.63;4.22;;;;;;;8.51;100.00;100883.66;5074641;28;20041;-47
2022/01/03 00:56:37;;;;;;;26.55;5.07;;;;;;;8.53;100.00;100890.59;5056782;28;20040;-49
2022/01/03 00:59:10;;;;;;;28.13;4.65;;;;;;;8.49;100.00;100884.53;5056664;28;20047;-47
2022/01/03 01:01:47;;;;;;;25.80;4.90;;;;;;;8.79;100.00;100926.72;5056350;28;20076;-48
2022/01/03 01:04:15;;;;;;;30.98;6.28;;;;;;;8.84;100.00;100938.81;5073950;28;20028;-51
2022/01/03 01:06:40;;;;;;;24.85;5.20;;;;;;;8.55;100.00;100894.06;5074437;28;20115;-49
2022/01/03 01:09:08;;;;;;;24.10;4.72;;;;;;;8.87;100.00;100956.28;5056518;28;20131;-49
2022/01/03 01:11:34;;;;;;;22.83;4.85;;;;;;;8.83;100.00;100949.38;5074527;28;20055;-47
2022/01/03 01:14:00;;;;;;;30.40;5.57;;;;;;;8.75;100.00;100940.81;5039984;28;20025;-47
2022/01/03 01:16:25;;;;;;;31.15;5.65;;;;;;;8.83;100.00;100955.50;5074393;28;20407;-47
2022/01/03 01:18:51;;;;;;;26.80;5.38;;;;;;;8.83;100.00;100963.38;5074088;28;20032;-49
2022/01/03 01:21:17;;;;;;;30.38;6.07;;;;;;;8.80;100.00;100973.06;5056310;28;20025;-53
2022/01/03 01:23:43;;;;;;;29.90;5.45;;;;;;;8.80;100.00;100958.19;5056148;28;20111;-48
2022/01/03 01:28:53;;;;;;;24.45;4.82;;;;;;;8.80;100.00;100952.94;5074296;28;20043;-49
2022/01/03 01:31:24;;;;;;;24.90;5.50;;;;;;;8.75;100.00;100922.47;5074038;28;20418;-49
2022/01/03 01:33:54;;;;;;;26.40;5.32;;;;;;;8.82;100.00;100958.13;5055773;28;20060;-49
2022/01/03 01:36:26;;;;;;;32.30;6.18;;;;;;;8.76;100.00;100948.66;5073837;28;20043;-49
2022/01/03 01:38:55;;;;;;;31.33;5.28;;;;;;;8.83;100.00;100958.13;5073969;28;20115;-47
2022/01/03 01:41:21;;;;;;;24.83;4.75;;;;;;;8.85;100.00;100951.06;5073780;28;20085;-48
2022/01/03 01:43:48;;;;;;;27.17;4.57;;;;;;;8.67;100.00;100921.78;5038990;28;20040;-48
2022/01/03 01:46:19;;;;;;;27.25;4.80;;;;;;;8.82;100.00;100958.13;5055532;28;20036;-52
2022/01/03 01:48:48;;;;;;;25.73;5.35;;;;;;;8.74;100.00;100929.47;5073272;28;20036;-50
2022/01/03 01:51:16;;;;;;;26.00;4.50;;;;;;;8.82;100.00;100948.50;5073656;28;20036;-50
2022/01/03 01:53:47;;;;;;;32.10;5.95;;;;;;;8.81;100.00;100945.94;5053516;28;20040;-49
2022/01/03 01:56:19;;;;;;;30.58;5.70;;;;;;;8.88;100.00;100968.50;5055160;28;20391;-48
2022/01/03 01:59:10;;;;;;;28.83;4.70;;;;;;;8.86;100.00;100968.53;5068709;28;20021;-50
2022/01/03 02:01:43;;;;;;;28.23;5.10;;;;;;;8.83;100.00;100967.75;5053507;28;20040;-48
2022/01/03 02:04:32;;;;;;;27.52;4.93;;;;;;;8.79;100.00;100972.19;5053330;28;20115;-49
2022/01/03 02:07:11;;;;;;;30.88;5.03;;;;;;;8.38;100.00;100902.28;5053314;28;20032;-48
2022/01/03 02:09:52;;;;;;;34.70;5.68;;;;;;;8.45;100.00;100921.38;5060232;28;20032;-47
2022/01/03 02:12:19;;;;;;;32.17;5.97;;;;;;;8.77;100.00;100971.38;5073006;28;20127;-47
2022/01/03 02:14:46;;;;;;;29.90;5.72;;;;;;;8.81;100.00;100962.56;5072918;28;20028;-48
2022/01/03 02:17:12;;;;;;;31.23;5.45;;;;;;;8.76;100.00;100950.41;5072968;28;20036;-49
2022/01/03 02:19:38;;;;;;;31.52;6.40;;;;;;;8.49;100.00;100902.06;5046173;28;20044;-51
2022/01/03 02:22:04;;;;;;;33.90;6.75;;;;;;;8.90;100.00;100953.59;5052881;28;20091;-50
2022/01/03 02:24:29;;;;;;;34.80;6.65;;;;;;;8.93;100.00;100966.66;5036303;28;20041;-53
2022/01/03 02:26:55;;;;;;;33.75;6.72;;;;;;;8.93;100.00;100964.88;5052905;28;20028;-50
2022/01/03 02:29:20;;;;;;;31.13;6.65;;;;;;;8.81;100.00;100956.44;5060988;28;20064;-49
2022/01/03 02:31:46;;;;;;;29.92;5.43;;;;;;;8.77;100.00;100945.13;5073160;28;20068;-48
2022/01/03 02:34:11;;;;;;;33.47;5.80;;;;;;;8.55;100.00;100901.06;5072126;28;20528;-52
2022/01/03 02:36:37;;;;;;;33.13;5.70;;;;;;;8.93;100.00;100961.41;5071123;28;20036;-49
2022/01/03 02:39:03;;;;;;;37.13;6.30;;;;;;;8.95;100.00;100962.22;5067114;28;20032;-47
2022/01/03 02:41:28;;;;;;;37.25;6.38;;;;;;;8.63;100.00;100914.88;5034735;28;20063;-49
2022/01/03 02:43:54;;;;;;;34.45;5.88;;;;;;;8.87;100.00;100961.53;5052700;28;20076;-48
2022/01/03 02:46:19;;;;;;;38.10;6.43;;;;;;;8.80;100.00;100967.81;5052535;28;20055;-49
2022/01/03 02:48:44;;;;;;;38.50;6.72;;;;;;;8.81;100.00;100966.94;5039779;28;20031;-50
2022/01/03 02:51:13;;;;;;;34.00;6.30;;;;;;;8.46;100.00;100894.28;5072392;28;20047;-48
2022/01/03 02:53:39;;;;;;;33.35;6.88;;;;;;;8.37;100.00;100900.59;5072285;28;20093;-47
2022/01/03 02:56:05;;;;;;;42.38;6.88;;;;;;;8.41;100.00;100893.50;5072477;28;20469;-48
2022/01/03 02:58:31;;;;;;;32.20;5.97;;;;;;;8.73;100.00;100948.72;5070090;28;20028;-50
2022/01/03 03:00:56;;;;;;;33.63;6.15;;;;;;;8.67;100.00;100948.84;5072525;28;20641;-50
2022/01/03 03:03:22;;;;;;;35.25;7.07;;;;;;;8.61;100.00;100917.50;5072204;28;20024;-50
2022/01/03 03:05:49;;;;;;;31.45;6.35;;;;;;;8.87;100.00;100977.28;5072223;28;20033;-48
2022/01/03 03:08:16;;;;;;;42.92;7.75;;;;;;;8.83;100.00;100975.63;5067371;28;20033;-50
2022/01/03 03:10:41;;;;;;;40.70;7.28;;;;;;;8.40;100.00;100904.91;5030709;28;20714;-50
2022/01/03 03:13:07;;;;;;;39.70;6.15;;;;;;;8.71;100.00;100960.16;5031027;28;20077;-49
2022/01/03 03:15:33;;;;;;;45.22;7.72;;;;;;;8.82;100.00;100973.88;5032302;28;20079;-49
2022/01/03 03:17:58;;;;;;;41.65;7.22;;;;;;;8.82;100.00;100974.75;5033287;28;20032;-47
2022/01/03 03:20:26;;;;;;;40.85;7.50;;;;;;;8.82;100.00;100947.63;5052063;28;20040;-48
2022/01/03 03:22:53;;;;;;;45.05;7.15;;;;;;;8.80;100.00;100949.44;5052220;28;20037;-49
2022/01/03 03:25:23;;;;;;;44.67;8.65;;;;;;;8.38;100.00;100889.19;5050671;28;20040;-51
2022/01/03 03:27:54;;;;;;;42.47;8.07;;;;;;;8.80;100.00;100954.69;5049917;28;20500;-50
2022/01/03 03:30:26;;;;;;;39.65;6.75;;;;;;;8.77;100.00;100958.25;5032107;28;20373;-51
2022/01/03 03:33:02;;;;;;;44.65;7.63;;;;;;;8.47;100.00;100893.34;5031946;28;20488;-48
2022/01/03 03:35:27;;;;;;;43.17;7.22;;;;;;;8.52;100.00;100894.13;5031159;28;20033;-50
2022/01/03 03:37:53;;;;;;;45.50;7.50;;;;;;;8.83;100.00;100945.00;5032646;28;20056;-48
2022/01/03 03:40:18;;;;;;;51.97;8.13;;;;;;;8.48;100.00;100895.97;5052095;28;20068;-49
2022/01/03 03:42:44;;;;;;;46.35;8.45;;;;;;;8.54;100.00;100913.31;5051988;28;20032;-51
2022/01/03 03:45:11;;;;;;;46.50;8.00;;;;;;;8.68;100.00;100934.84;5051553;28;20054;-48
2022/01/03 03:47:37;;;;;;;45.53;8.55;;;;;;;8.79;100.00;100942.47;5051537;28;20115;-48
2022/01/03 03:50:04;;;;;;;47.08;7.68;;;;;;;8.77;100.00;100942.50;5033293;28;20611;-49
2022/01/03 03:52:30;;;;;;;33.60;6.13;;;;;;;8.33;100.00;100870.06;5032133;28;20463;-50
2022/01/03 03:54:55;;;;;;;44.25;7.05;;;;;;;8.71;100.00;100929.53;5031874;28;20118;-48
2022/01/03 03:57:20;;;;;;;51.95;8.07;;;;;;;8.74;100.00;100939.09;5031962;28;20029;-49
2022/01/03 03:59:46;;;;;;;50.65;8.00;;;;;;;8.32;100.00;100855.22;5046903;28;20033;-47
2022/01/03 04:02:11;;;;;;;52.42;8.13;;;;;;;8.61;100.00;100914.88;5050219;28;20040;-48
2022/01/03 04:04:37;;;;;;;44.97;7.75;;;;;;;8.69;100.00;100941.84;5052017;28;20033;-50
2022/01/03 04:07:03;;;;;;;43.10;7.78;;;;;;;8.71;100.00;100924.28;5034091;28;20060;-46
2022/01/03 04:09:28;;;;;;;36.03;6.95;;;;;;;8.42;100.00;100869.00;5037599;28;20103;-51
2022/01/03 04:11:53;;;;;;;35.55;7.90;;;;;;;8.44;100.00;100851.44;5030266;28;20049;-47
2022/01/03 04:14:19;;;;;;;46.97;8.55;;;;;;;8.49;100.00;100857.47;5035270;28;20044;-51
2022/01/03 04:16:45;;;;;;;53.80;9.13;;;;;;;8.87;100.00;100919.53;5050451;28;20179;-52
2022/01/03 04:19:10;;;;;;;43.38;8.45;;;;;;;8.61;100.00;100872.06;5041776;28;20542;-49
2022/01/03 04:21:37;;;;;;;39.75;7.97;;;;;;;8.85;100.00;100914.31;5035643;28;20038;-49
2022/01/03 04:24:04;;;;;;;45.88;7.85;;;;;;;8.85;100.00;100930.06;5035461;28;20037;-49
2022/01/03 04:26:30;;;;;;;43.05;8.35;;;;;;;8.78;100.00;100909.25;5034214;28;20366;-50
2022/01/03 04:28:55;;;;;;;53.63;7.95;;;;;;;8.59;100.00;100865.97;5042906;28;20103;-48
2022/01/03 04:31:21;;;;;;;48.67;7.93;;;;;;;8.70;100.00;100898.94;5054929;28;20399;-48
2022/01/03 04:33:46;;;;;;;50.17;8.38;;;;;;;8.82;100.00;100906.50;5053768;28;20041;-48
2022/01/03 04:36:12;;;;;;;44.08;8.68;;;;;;;8.81;100.00;100909.19;5053785;28;20029;-49
2022/01/03 04:38:37;;;;;;;51.72;8.77;;;;;;;8.82;100.00;100900.41;5050273;28;20117;-50
2022/01/03 04:41:03;;;;;;;53.95;8.32;;;;;;;8.47;100.00;100840.88;5034965;28;20039;-50
2022/01/03 04:43:28;;;;;;;52.97;9.50;;;;;;;8.55;100.00;100840.72;5034744;28;20032;-49
2022/01/03 04:45:56;;;;;;;59.92;10.75;;;;;;;8.85;100.00;100897.69;5034827;28;20033;-51
2022/01/03 04:48:22;;;;;;;59.42;9.23;;;;;;;8.85;100.00;100874.94;5051763;28;20052;-52
2022/01/03 04:50:48;;;;;;;48.08;8.63;;;;;;;8.89;100.00;100878.34;5053505;28;20357;-49
2022/01/03 04:53:13;;;;;;;51.25;9.25;;;;;;;8.88;100.00;100889.75;5053395;28;20052;-49
2022/01/03 04:55:39;;;;;;;47.05;8.63;;;;;;;8.39;100.00;100800.88;5054674;28;20065;-47
2022/01/03 04:58:04;;;;;;;41.42;7.75;;;;;;;8.91;100.00;100884.41;5054761;28;20041;-54
2022/01/03 05:00:30;;;;;;;41.97;7.78;;;;;;;8.58;100.00;100824.91;5017432;28;20115;-52
2022/01/03 05:02:55;;;;;;;46.90;8.00;;;;;;;8.51;100.00;100815.44;5033509;28;20037;-51
2022/01/03 05:05:22;;;;;;;53.67;8.68;;;;;;;8.87;100.00;100877.53;5034692;28;20029;-50
2022/01/03 05:07:47;;;;;;;53.35;8.32;;;;;;;8.70;100.00;100859.56;5034485;28;20042;-52
2022/01/03 05:10:12;;;;;;;49.80;8.85;;;;;;;8.82;100.00;100880.25;5050331;28;20377;-51
2022/01/03 05:12:38;;;;;;;50.85;9.00;;;;;;;8.58;100.00;100841.50;5074296;28;20083;-54
2022/01/03 05:15:04;;;;;;;45.80;9.55;;;;;;;8.67;100.00;100853.56;5074301;28;20040;-51
2022/01/03 05:17:31;;;;;;;44.92;8.55;;;;;;;8.38;100.00;100801.75;5074479;28;20048;-51
2022/01/03 05:19:57;;;;;;;52.28;8.02;;;;;;;8.60;100.00;100863.31;5072908;28;20099;-50
2022/01/03 05:22:22;;;;;;;44.30;7.22;;;;;;;8.55;100.00;100832.84;5074032;28;20058;-50
2022/01/03 05:24:47;;;;;;;51.67;7.68;;;;;;;8.81;100.00;100888.19;5056162;28;20455;-49
2022/01/03 05:27:13;;;;;;;49.28;9.55;;;;;;;8.74;100.00;100849.84;5074291;28;20040;-51
2022/01/03 05:29:38;;;;;;;53.80;9.32;;;;;;;8.70;100.00;100838.56;5054723;28;20041;-51
2022/01/03 05:32:04;;;;;;;43.17;7.80;;;;;;;8.60;100.00;100829.22;5076037;28;20066;-51
2022/01/03 05:34:29;;;;;;;49.67;7.30;;;;;;;8.90;100.00;100877.47;5073659;28;20507;-49
2022/01/03 05:36:54;;;;;;;50.17;8.02;;;;;;;8.49;100.00;100816.34;5073578;28;20471;-52
2022/01/03 05:39:20;;;;;;;50.22;7.65;;;;;;;8.44;100.00;100810.34;5073166;28;20039;-55
2022/01/03 05:41:45;;;;;;;47.83;8.27;;;;;;;8.79;100.00;100864.59;5073378;28;20502;-51
2022/01/03 05:44:11;;;;;;;43.67;7.40;;;;;;;8.64;100.00;100820.34;5073169;28;20588;-53
2022/01/03 05:46:36;;;;;;;54.88;9.13;;;;;;;9.02;100.00;100885.00;5074931;28;20032;-50
2022/01/03 05:49:02;;;;;;;46.58;7.63;;;;;;;9.05;100.00;100877.94;5055645;28;20372;-51
2022/01/03 05:51:27;;;;;;;48.45;8.90;;;;;;;9.06;100.00;100863.03;5053511;28;20147;-49
2022/01/03 05:53:53;;;;;;;39.83;7.07;;;;;;;8.88;100.00;100845.13;5077641;28;20039;-50
2022/01/03 05:56:19;;;;;;;47.40;7.38;;;;;;;9.05;100.00;100887.56;5073187;28;20086;-50
2022/01/03 05:58:44;;;;;;;43.35;7.45;;;;;;;8.96;100.00;100856.31;5055105;28;20039;-50
2022/01/03 06:01:10;;;;;;;44.00;8.98;;;;;;;9.01;100.00;100859.69;5053951;28;20032;-50
2022/01/03 06:03:38;;;;;;;45.90;8.60;;;;;;;8.99;100.00;100861.47;5072619;28;20070;-49
2022/01/03 06:08:37;;;;;;;53.60;8.15;;;;;;;8.83;100.00;100855.75;5073024;28;20097;-49
2022/01/03 06:11:02;;;;;;;55.88;9.20;;;;;;;8.88;100.00;100868.75;5072910;28;20446;-50
2022/01/03 06:13:28;;;;;;;44.22;7.00;;;;;;;8.83;100.00;100868.00;5072813;28;20119;-51
2022/01/03 06:15:54;;;;;;;42.63;7.65;;;;;;;8.90;100.00;100887.97;5055089;28;20041;-52
2022/01/03 06:18:20;;;;;;;47.80;8.20;;;;;;;8.45;100.00;100801.59;5055301;28;20048;-52
2022/01/03 06:20:47;;;;;;;49.35;8.20;;;;;;;8.55;100.00;100806.63;5055300;28;20111;-51
2022/01/03 06:23:14;;;;;;;38.25;7.13;;;;;;;8.54;100.00;100789.16;5072994;28;20085;-50
2022/01/03 06:25:39;;;;;;;47.10;7.80;;;;;;;8.83;100.00;100852.25;5055047;28;20029;-52
2022/01/03 06:28:08;;;;;;;45.53;7.40;;;;;;;8.88;100.00;100859.13;5072778;28;20040;-51
2022/01/03 06:30:35;;;;;;;49.92;7.50;;;;;;;8.88;100.00;100850.38;5072892;28;20039;-52
2022/01/03 06:33:00;;;;;;;45.78;8.18;;;;;;;8.45;100.00;100775.38;5054819;28;20531;-55
2022/01/03 06:35:26;;;;;;;42.42;7.55;;;;;;;8.67;100.00;100812.41;5054923;28;20101;-52
2022/01/03 06:37:51;;;;;;;42.80;7.97;;;;;;;8.81;100.00;100838.31;5054820;28;20040;-46
2022/01/03 06:40:16;;;;;;;45.28;7.25;;;;;;;8.81;100.00;100833.06;5072644;28;20361;-53
2022/01/03 06:42:42;;;;;;;50.92;7.85;;;;;;;8.85;100.00;100822.44;5072640;28;20037;-48
2022/01/03 06:45:08;;;;;;;56.65;8.38;;;;;;;8.57;100.00;100776.81;5072653;28;20052;-51
2022/01/03 06:47:33;;;;;;;32.40;6.60;;;;;;;8.97;100.00;100848.38;5054646;28;20033;-51
2022/01/03 06:49:59;;;;;;;56.33;8.82;;;;;;;8.75;100.00;100839.34;5054645;28;20400;-51
2022/01/03 06:52:24;;;;;;;41.95;7.68;;;;;;;8.88;100.00;100866.13;5054695;28;20454;-52
2022/01/03 06:54:50;;;;;;;41.13;7.05;;;;;;;8.88;100.00;100856.50;5054446;28;20120;-50
2022/01/03 06:57:15;;;;;;;42.03;7.13;;;;;;;8.90;100.00;100856.47;5054536;28;20028;-48
2022/01/03 06:59:41;;;;;;;49.45;8.32;;;;;;;8.87;100.00;100851.28;5072435;28;20031;-49
2022/01/03 07:02:06;;;;;;;43.85;7.90;;;;;;;8.85;100.00;100843.44;5072171;28;20067;-53
2022/01/03 07:04:31;;;;;;;54.55;8.27;;;;;;;8.43;100.00;100785.00;5072198;28;20111;-48
2022/01/03 07:06:57;;;;;;;45.13;7.75;;;;;;;8.43;100.00;100785.00;5054151;28;20191;-50
2022/01/03 07:09:22;;;;;;;46.63;7.75;;;;;;;8.39;100.00;100775.50;5072343;28;20041;-50
2022/01/03 07:11:48;;;;;;;40.75;6.82;;;;;;;8.75;100.00;100835.84;5071583;28;20391;-55
2022/01/03 07:19:40;;;;;;;40.25;7.10;;;;;;;8.75;100.00;100846.34;5057276;28;20051;-49
2022/01/03 07:22:08;;;;;;;48.65;7.00;;;;;;;8.67;100.00;100841.28;5071959;28;20476;-50
2022/01/03 07:24:35;;;;;;;46.95;7.97;;;;;;;8.63;100.00;100837.00;5054367;28;20048;-51
2022/01/03 07:27:02;;;;;;;40.05;7.57;;;;;;;8.72;100.00;100864.78;5054450;28;20044;-50
2022/01/03 07:29:28;;;;;;;40.70;7.85;;;;;;;8.77;100.00;100873.41;5072050;28;20484;-49
2022/01/03 07:31:53;;;;;;;45.85;7.47;;;;;;;8.37;100.00;100787.81;5072065;28;20028;-53
2022/01/03 07:34:18;;;;;;;46.60;7.70;;;;;;;8.78;100.00;100862.88;5071903;28;20460;-53
2022/01/03 07:36:44;;;;;;;34.83;7.32;;;;;;;8.39;100.00;100790.38;5053921;28;20041;-51
2022/01/03 07:39:09;;;;;;;40.05;6.30;;;;;;;8.75;100.00;100856.84;5054309;28;20032;-52
2022/01/03 07:41:34;;;;;;;37.00;6.72;;;;;;;8.79;100.00;100851.47;5072107;28;20472;-51
2022/01/03 07:44:00;;;;;;;42.13;6.60;;;;;;;8.76;100.00;100859.41;5071900;28;20040;-55
2022/01/03 07:46:25;;;;;;;42.05;7.55;;;;;;;8.74;100.00;100855.97;5071800;28;20032;-51
2022/01/03 07:48:50;;;;;;;43.28;7.53;;;;;;;8.69;100.00;100873.59;5071955;28;20472;-49
2022/01/03 07:51:16;;;;;;;40.65;7.40;;;;;;;8.28;100.00;100790.66;5071759;28;20088;-51
2022/01/03 07:53:42;;;;;;;42.33;7.05;;;;;;;8.62;100.00;100853.66;5071993;28;20032;-53
2022/01/03 07:56:09;;;;;;;55.33;9.35;;;;;;;8.54;100.00;100836.38;5075082;28;20472;-56
2022/01/03 07:58:35;;;;;;;45.60;7.50;;;;;;;8.39;100.00;100814.84;5075734;28;20044;-55
2022/01/03 08:01:00;;;;;;;36.90;8.13;;;;;;;8.35;100.00;100812.31;5075520;28;20028;-54
2022/01/03 08:03:26;;;;;;;44.83;7.20;;;;;;;8.28;100.00;100793.28;5075359;28;20035;-54
2022/01/03 08:05:51;;;;;;;39.10;7.85;;;;;;;8.69;100.00;100860.47;5075509;28;20109;-55
2022/01/03 08:08:17;;;;;;;37.50;7.53;;;;;;;8.59;100.00;100845.84;5075537;28;20040;-50
2022/01/03 08:10:45;;;;;;;45.42;7.35;;;;;;;8.69;100.00;100872.75;5075474;28;20117;-47
2022/01/03 08:13:10;;;;;;;39.75;7.03;;;;;;;8.62;100.00;100858.91;5075339;28;20024;-50
2022/01/03 08:15:36;;;;;;;39.53;8.13;;;;;;;8.42;100.00;100811.28;5057811;28;20369;-51
2022/01/03 08:18:01;;;;;;;41.10;7.38;;;;;;;8.62;100.00;100858.03;5057582;28;20032;-48
2022/01/03 08:20:27;;;;;;;39.47;7.07;;;;;;;8.68;100.00;100861.38;5075097;28;20059;-52
2022/01/03 08:22:52;;;;;;;36.05;7.47;;;;;;;8.27;100.00;100782.75;5075642;28;20120;-49
2022/01/03 08:25:18;;;;;;;45.40;7.97;;;;;;;8.25;100.00;100789.81;5075374;28;20446;-52
2022/01/03 08:27:43;;;;;;;51.70;7.35;;;;;;;8.68;100.00;100866.63;5057321;28;20036;-57
2022/01/03 08:30:09;;;;;;;40.88;6.90;;;;;;;8.72;100.00;100870.03;5075168;28;20032;-52
2022/01/03 08:32:34;;;;;;;37.97;7.55;;;;;;;8.71;100.00;100870.94;5075222;28;20515;-50
2022/01/03 08:34:59;;;;;;;40.05;7.40;;;;;;;8.69;100.00;100889.34;5057101;28;20040;-52
2022/01/03 08:37:25;;;;;;;47.22;7.97;;;;;;;8.48;100.00;100842.63;5075232;28;20472;-48
2022/01/03 08:39:50;;;;;;;39.00;6.47;;;;;;;8.61;100.00;100872.06;5075027;28;20040;-52
2022/01/03 08:42:17;;;;;;;37.45;7.68;;;;;;;8.33;100.00;100811.50;5075097;28;20075;-51
2022/01/03 08:44:42;;;;;;;41.47;7.55;;;;;;;8.39;100.00;100808.75;5057342;28;20505;-48
2022/01/03 08:47:07;;;;;;;35.53;6.88;;;;;;;8.72;100.00;100867.41;5074745;28;20119;-51
2022/01/03 08:49:33;;;;;;;33.67;6.68;;;;;;;8.87;100.00;100893.28;5040281;28;20156;-50
2022/01/03 08:52:00;;;;;;;41.10;7.70;;;;;;;8.89;100.00;100891.47;5074964;28;20524;-53
2022/01/03 08:54:25;;;;;;;33.40;6.90;;;;;;;8.55;100.00;100824.97;5074646;28;20506;-56
2022/01/03 08:56:50;;;;;;;43.20;6.63;;;;;;;8.90;100.00;100882.72;5074733;28;20029;-51
2022/01/03 08:59:16;;;;;;;35.78;6.50;;;;;;;8.80;100.00;100886.44;5074694;28;20572;-51
2022/01/03 09:01:42;;;;;;;43.47;7.65;;;;;;;8.41;100.00;100799.94;5074579;28;20056;-52
2022/01/03 09:04:07;;;;;;;36.88;6.43;;;;;;;8.87;100.00;100874.91;5074390;28;20060;-52
2022/01/03 09:06:35;;;;;;;43.42;6.93;;;;;;;8.51;100.00;100805.81;5074781;28;20043;-50
2022/01/03 09:09:00;;;;;;;45.17;7.50;;;;;;;8.90;100.00;100873.06;5074566;28;20039;-50
2022/01/03 09:11:26;;;;;;;37.97;7.35;;;;;;;8.68;100.00;100829.00;5056577;28;20124;-52
2022/01/03 09:13:52;;;;;;;42.30;6.65;;;;;;;8.91;100.00;100871.28;5074513;28;20032;-53
2022/01/03 09:16:17;;;;;;;41.13;7.85;;;;;;;8.90;100.00;100866.97;5074385;28;20029;-50
2022/01/03 09:18:42;;;;;;;38.05;7.25;;;;;;;8.26;100.00;100747.81;5074065;28;20055;-51
2022/01/03 09:21:09;;;;;;;41.55;7.25;;;;;;;8.67;100.00;100803.69;5074251;28;20115;-52
2022/01/03 09:23:39;;;;;;;41.08;7.82;;;;;;;8.92;100.00;100831.91;5040192;28;20399;-52
2022/01/03 09:28:56;;;;;;;41.00;7.13;;;;;;;8.98;100.00;100846.63;5058854;28;20093;-55
2022/01/03 09:31:47;;;;;;;32.72;6.25;;;;;;;9.11;100.00;100861.16;5073967;28;20141;-51
2022/01/03 09:34:13;;;;;;;35.85;6.93;;;;;;;8.78;100.00;100785.91;5050927;28;20483;-51
2022/01/03 09:36:38;;;;;;;41.97;7.00;;;;;;;9.09;100.00;100825.34;5074005;28;20051;-54
2022/01/03 09:39:05;;;;;;;42.33;7.18;;;;;;;8.99;100.00;100811.56;5073993;28;20025;-51
2022/01/03 09:41:32;;;;;;;43.63;6.70;;;;;;;8.87;100.00;100799.63;5055918;28;20180;-51
2022/01/03 09:44:03;;;;;;;40.28;7.18;;;;;;;9.37;100.00;100855.22;5073741;28;20068;-51
2022/01/03 09:46:40;;;;;;;46.65;7.55;;;;;;;9.46;100.00;100855.81;5073860;28;20029;-50
2022/01/03 09:49:08;;;;;;;39.72;7.05;;;;;;;9.50;100.00;100864.47;5055907;28;20087;-53
2022/01/03 09:51:33;;;;;;;43.60;7.95;;;;;;;9.19;100.00;100795.31;5073616;28;20391;-52
2022/01/03 09:54:10;;;;;;;41.72;7.43;;;;;;;9.49;100.00;100841.72;5073462;28;20039;-52
2022/01/03 09:56:37;;;;;;;46.10;7.22;;;;;;;9.72;100.00;100864.75;5055783;28;20108;-49
2022/01/03 09:59:05;;;;;;;42.20;8.20;;;;;;;9.74;100.00;100869.06;5073577;28;20028;-52
2022/01/03 10:01:31;;;;;;;36.25;7.63;;;;;;;9.84;100.00;100856.50;5073561;28;20039;-53
2022/01/03 10:03:57;;;;;;;42.15;7.68;;;;;;;9.63;100.00;100797.56;5055470;28;20048;-51
2022/01/03 10:06:24;;;;;;;46.33;7.85;;;;;;;9.63;100.00;100790.50;5073188;28;20031;-51
2022/01/03 10:08:49;;;;;;;44.53;7.78;;;;;;;10.15;100.00;100852.09;5073090;28;20032;-54
2022/01/03 10:11:15;;;;;;;38.90;8.00;;;;;;;10.22;100.00;100848.34;5055099;28;20047;-50
2022/01/03 10:13:41;;;;;;;39.45;6.63;;;;;;;9.98;100.00;100799.13;5073177;28;20040;-53
2022/01/03 10:16:07;;;;;;;40.30;7.25;;;;;;;9.99;100.00;100793.81;5073058;28;20115;-52
2022/01/03 10:18:33;;;;;;;35.00;7.53;;;;;;;10.40;100.00;100862.72;5054508;28;20430;-53
2022/01/03 10:21:00;;;;;;;40.05;7.55;;;;;;;10.37;100.00;100833.88;5072966;28;20029;-55
2022/01/03 10:23:25;;;;;;;39.15;8.32;;;;;;;10.20;100.00;100800.22;5072956;28;20079;-52
2022/01/03 10:25:50;;;;;;;42.08;7.72;;;;;;;10.34;100.00;100810.28;5072850;28;20060;-53
2022/01/03 10:28:24;;;;;;;39.10;7.15;;;;;;;10.56;100.00;100842.91;5073003;28;20044;-49
2022/01/03 10:30:50;;;;;;;41.67;6.28;;;;;;;10.62;100.00;100861.97;5072696;28;20058;-53
2022/01/03 10:33:18;;;;;;;36.47;6.72;;;;;;;10.36;100.00;100809.31;5072645;28;20032;-49
2022/01/03 10:35:46;;;;;;;45.58;7.63;;;;;;;10.20;100.00;100783.56;5038143;28;20038;-53
2022/01/03 10:38:30;;;;;;;31.58;6.30;;;;;;;10.20;100.00;100780.94;5072892;28;20153;-51
2022/01/03 10:41:12;;;;;;;37.45;7.32;;;;;;;10.49;100.00;100820.31;5072788;28;20024;-54
2022/01/03 10:43:37;;;;;;;34.22;7.78;;;;;;;10.56;100.00;100835.88;5054992;28;20020;-54
2022/01/03 10:46:17;;;;;;;42.03;7.05;;;;;;;10.56;100.00;100840.28;5072682;28;20040;-53
2022/01/03 10:48:42;;;;;;;29.50;6.85;;;;;;;10.62;100.00;100800.59;5072702;28;20060;-53
2022/01/03 10:51:08;;;;;;;35.90;6.55;;;;;;;10.92;100.00;100844.31;5072554;28;20056;-54
2022/01/03 10:53:35;;;;;;;43.63;7.82;;;;;;;10.85;100.00;100797.19;5054747;28;20036;-51
2022/01/03 10:56:30;;;;;;;40.17;7.50;;;;;;;10.72;100.00;100776.53;5072428;28;20112;-50
2022/01/03 10:59:02;;;;;;;34.75;7.05;;;;;;;10.78;100.00;100783.38;5072527;28;20036;-51
2022/01/03 11:01:29;;;;;;;33.45;7.07;;;;;;;10.76;100.00;100765.91;5072435;28;20032;-53
2022/01/03 11:03:59;;;;;;;37.22;7.50;;;;;;;10.85;100.00;100763.84;5072333;28;20103;-54
2022/01/03 11:11:44;;;;;;;30.58;6.40;;;;;;;11.05;100.00;100818.44;5051031;28;20514;-50
2022/01/03 11:14:30;;;;;;;38.10;8.10;;;;;;;11.05;100.00;100828.97;5050855;28;20061;-51
2022/01/03 11:16:55;;;;;;;47.08;7.10;;;;;;;11.10;100.00;100812.09;5052232;28;20029;-52
2022/01/03 11:19:42;;;;;;;41.95;7.80;;;;;;;11.07;100.00;100809.56;5052172;28;20036;-49
2022/01/03 11:22:08;;;;;;;38.60;7.22;;;;;;;10.99;100.00;100794.94;5034734;28;20427;-57
2022/01/03 11:24:47;;;;;;;36.53;7.35;;;;;;;10.74;100.00;100755.41;5052299;28;20040;-56
2022/01/03 11:27:12;;;;;;;39.42;7.65;;;;;;;10.88;100.00;100781.28;5052372;28;20029;-52
2022/01/03 11:29:38;;;;;;;47.47;9.00;;;;;;;10.87;100.00;100804.13;5051888;28;20055;-56
2022/01/03 11:32:04;;;;;;;41.17;7.47;;;;;;;10.70;100.00;100733.63;5055567;28;20083;-54
2022/01/03 11:34:29;;;;;;;37.65;7.85;;;;;;;11.14;100.00;100789.16;5054223;28;20465;-54